Terminal Aerodrome Forecast
Issued by NWS

Home | Current Version | Previous Version | Graphics & Text | Print | Product List | Glossary On
Versions: 1 2 3 4 5 6 7 8 9 10 11 12 13 14 15
000
FTUS43 KMPX 212320
TAFRNH
TAF
KRNH 212320Z 2200/2224 24006KT P6SM FEW060
     FM220200 19005KT P6SM SCT250
     FM221600 19012G20KT P6SM SKC
     FM221900 19015G23KT P6SM SKC=

USA.gov is the U.S. government's official web portal to all federal, state and local government web resources and services.